Time;durP1;ratioP1;P1;durP2;ratioP2;P2;SDS_P1;SDS_P2;PMS_P1;PMS_P2;Temp;Humidity;BMP_temperature;BMP_pressure;BME280_temperature;BME280_humidity;BME280_pressure;Samples;Min_cycle;Max_cycle;Signal;HPM_P1;HPM_P2
2023/04/22 00:02:19;;;;;;;9.63;4.43;;;;;;;;;;4933774;29;20115;-84
2023/04/22 00:04:46;;;;;;;9.07;4.45;;;;;;;;;;4952785;28;20051;-85
2023/04/22 00:07:14;;;;;;;12.95;5.50;;;;;;;;;;4928274;29;20043;-86
2023/04/22 00:09:44;;;;;;;11.05;4.95;;;;;;;;;;4946069;29;20075;-85
2023/04/22 00:12:12;;;;;;;10.77;4.57;;;;;;;;;;4938799;29;20047;-87
2023/04/22 00:14:39;;;;;;;11.60;4.82;;;;;;;;;;4911573;29;20061;-84
2023/04/22 00:17:08;;;;;;;8.65;4.70;;;;;;;;;;4950600;28;20536;-85
2023/04/22 00:19:35;;;;;;;16.40;4.40;;;;;;;;;;4953790;29;20062;-84
2023/04/22 00:22:03;;;;;;;10.50;4.70;;;;;;;;;;4939084;29;20052;-84
2023/04/22 00:24:29;;;;;;;15.85;4.63;;;;;;;;;;4934152;29;20044;-84
2023/04/22 00:26:56;;;;;;;14.07;4.47;;;;;;;;;;4921448;29;20047;-86
2023/04/22 00:29:24;;;;;;;14.00;5.18;;;;;;;;;;4937124;29;20359;-86
2023/04/22 00:31:50;;;;;;;12.30;4.47;;;;;;;;;;4933900;29;20106;-85
2023/04/22 00:34:18;;;;;;;13.35;4.20;;;;;;;;;;4917044;29;20043;-84
2023/04/22 00:36:45;;;;;;;10.68;4.15;;;;;;;;;;4933463;29;20055;-84
2023/04/22 00:39:11;;;;;;;13.35;4.72;;;;;;;;;;4918153;29;20433;-85
2023/04/22 00:41:39;;;;;;;10.50;4.00;;;;;;;;;;4917769;29;20102;-85
2023/04/22 00:44:09;;;;;;;15.05;4.30;;;;;;;;;;4907892;29;20404;-85
2023/04/22 00:46:39;;;;;;;9.55;3.88;;;;;;;;;;4920365;29;20055;-83
2023/04/22 00:49:09;;;;;;;16.02;4.40;;;;;;;;;;4908187;29;20054;-86
2023/04/22 00:51:36;;;;;;;13.23;4.25;;;;;;;;;;4919484;29;20040;-85
2023/04/22 00:54:05;;;;;;;11.98;4.38;;;;;;;;;;4918184;29;20473;-85
2023/04/22 00:56:32;;;;;;;11.55;4.38;;;;;;;;;;4919375;29;20051;-86
2023/04/22 00:58:59;;;;;;;9.70;4.20;;;;;;;;;;4924804;29;20051;-83
2023/04/22 01:01:26;;;;;;;10.77;4.10;;;;;;;;;;4952387;29;20047;-86
2023/04/22 01:03:53;;;;;;;7.55;4.07;;;;;;;;;;4950733;29;20055;-85
2023/04/22 01:06:21;;;;;;;14.40;3.88;;;;;;;;;;4959619;28;20237;-85
2023/04/22 01:08:47;;;;;;;11.90;4.30;;;;;;;;;;4955243;29;20071;-87
2023/04/22 01:11:14;;;;;;;15.07;4.30;;;;;;;;;;4955018;29;20070;-86
2023/04/22 01:13:41;;;;;;;8.77;4.63;;;;;;;;;;4955901;29;20057;-85
2023/04/22 01:16:08;;;;;;;12.23;5.35;;;;;;;;;;4951750;29;20075;-85
2023/04/22 01:18:35;;;;;;;10.02;4.53;;;;;;;;;;4953024;29;20035;-86
2023/04/22 01:21:02;;;;;;;8.70;4.28;;;;;;;;;;4937088;29;20063;-84
2023/04/22 01:23:29;;;;;;;11.95;4.70;;;;;;;;;;4936871;28;20047;-84
2023/04/22 01:25:56;;;;;;;10.75;4.65;;;;;;;;;;4952747;29;20102;-86
2023/04/22 01:28:23;;;;;;;15.77;4.75;;;;;;;;;;4961173;29;20031;-85
2023/04/22 01:30:49;;;;;;;12.73;5.82;;;;;;;;;;4937728;29;20114;-86
2023/04/22 01:33:16;;;;;;;17.38;5.55;;;;;;;;;;4952611;28;20078;-85
2023/04/22 01:35:43;;;;;;;13.82;5.07;;;;;;;;;;4939412;29;20059;-86
2023/04/22 01:38:10;;;;;;;13.07;4.40;;;;;;;;;;4956582;29;20047;-86
2023/04/22 01:40:37;;;;;;;12.27;4.95;;;;;;;;;;4953563;29;20043;-85
2023/04/22 01:43:04;;;;;;;14.00;5.43;;;;;;;;;;4953733;29;20055;-86
2023/04/22 01:45:31;;;;;;;8.75;4.80;;;;;;;;;;4953616;29;20069;-85
2023/04/22 01:47:58;;;;;;;11.18;4.50;;;;;;;;;;4953585;29;20500;-84
2023/04/22 01:50:25;;;;;;;11.75;4.78;;;;;;;;;;4937963;29;20051;-85
2023/04/22 01:52:52;;;;;;;10.40;5.00;;;;;;;;;;4958850;28;20117;-86
2023/04/22 01:55:20;;;;;;;11.10;5.03;;;;;;;;;;4942241;28;20040;-82
2023/04/22 01:57:47;;;;;;;13.90;4.53;;;;;;;;;;4948976;29;20048;-84
2023/04/22 02:00:14;;;;;;;16.17;5.18;;;;;;;;;;4902992;29;20055;-85
2023/04/22 02:02:45;;;;;;;10.52;5.00;;;;;;;;;;4934073;29;20051;-85
2023/04/22 02:05:11;;;;;;;13.43;5.30;;;;;;;;;;4938209;29;20433;-86
2023/04/22 02:07:38;;;;;;;11.88;4.60;;;;;;;;;;4936393;29;20040;-86
2023/04/22 02:10:06;;;;;;;13.15;5.03;;;;;;;;;;4936175;29;20440;-86
2023/04/22 02:12:33;;;;;;;15.20;5.03;;;;;;;;;;4919087;29;20482;-86
2023/04/22 02:14:59;;;;;;;11.30;5.63;;;;;;;;;;4934412;29;20082;-85
2023/04/22 02:17:26;;;;;;;14.02;4.88;;;;;;;;;;4918864;29;20047;-86
2023/04/22 02:19:53;;;;;;;12.27;4.82;;;;;;;;;;4917647;29;20051;-85
2023/04/22 02:22:20;;;;;;;12.27;5.32;;;;;;;;;;4932101;29;20052;-84
2023/04/22 02:24:49;;;;;;;14.20;5.57;;;;;;;;;;4903012;29;20430;-85
2023/04/22 02:27:16;;;;;;;12.82;5.25;;;;;;;;;;4945541;29;20052;-85
2023/04/22 02:29:44;;;;;;;14.75;5.85;;;;;;;;;;4943141;29;20039;-86
2023/04/22 02:32:12;;;;;;;15.38;5.13;;;;;;;;;;4946826;29;20062;-85
2023/04/22 02:34:38;;;;;;;15.85;5.22;;;;;;;;;;4920700;29;20290;-87
2023/04/22 02:37:05;;;;;;;12.13;5.40;;;;;;;;;;4918898;29;20043;-86
2023/04/22 02:39:32;;;;;;;15.85;5.47;;;;;;;;;;4934398;29;20217;-86
2023/04/22 02:41:59;;;;;;;11.30;5.10;;;;;;;;;;4934765;29;20058;-87
2023/04/22 02:44:26;;;;;;;12.48;5.40;;;;;;;;;;4933460;29;20126;-86
2023/04/22 02:46:52;;;;;;;10.10;5.05;;;;;;;;;;4902652;29;20067;-85
2023/04/22 02:49:19;;;;;;;15.65;5.22;;;;;;;;;;4931351;29;20094;-84
2023/04/22 02:51:48;;;;;;;11.77;5.40;;;;;;;;;;4899923;29;20058;-85
2023/04/22 02:54:14;;;;;;;14.35;5.25;;;;;;;;;;4915383;29;20064;-84
2023/04/22 02:56:41;;;;;;;11.38;5.30;;;;;;;;;;4932057;29;20095;-84
2023/04/22 02:59:07;;;;;;;15.07;5.53;;;;;;;;;;4930638;29;20055;-85
2023/04/22 03:01:34;;;;;;;13.68;5.93;;;;;;;;;;4915229;29;20067;-86
2023/04/22 03:04:04;;;;;;;12.05;5.53;;;;;;;;;;4904919;29;20111;-86
2023/04/22 03:06:31;;;;;;;14.18;4.95;;;;;;;;;;4920192;29;20051;-86
2023/04/22 03:08:58;;;;;;;11.93;5.53;;;;;;;;;;4904043;29;20051;-86
2023/04/22 03:11:25;;;;;;;9.88;5.07;;;;;;;;;;4921612;29;20043;-86
2023/04/22 03:13:52;;;;;;;14.60;5.50;;;;;;;;;;4908755;29;20106;-86
2023/04/22 03:16:18;;;;;;;12.35;5.28;;;;;;;;;;4947255;29;20047;-86
2023/04/22 03:18:45;;;;;;;13.65;5.20;;;;;;;;;;4921715;29;20051;-86
2023/04/22 03:21:13;;;;;;;16.77;5.32;;;;;;;;;;4937563;29;20067;-85
2023/04/22 03:23:40;;;;;;;11.38;5.60;;;;;;;;;;4937100;29;20119;-86
2023/04/22 03:26:09;;;;;;;12.43;5.22;;;;;;;;;;4920900;29;20073;-86
2023/04/22 03:28:38;;;;;;;11.55;5.43;;;;;;;;;;4905395;29;20118;-86
2023/04/22 03:31:07;;;;;;;11.20;5.22;;;;;;;;;;4920622;29;20067;-85
2023/04/22 03:33:34;;;;;;;13.52;5.70;;;;;;;;;;4919364;29;20107;-84
2023/04/22 03:36:10;;;;;;;12.35;5.70;;;;;;;;;;4916648;29;20052;-84
2023/04/22 03:38:37;;;;;;;12.23;4.90;;;;;;;;;;4917341;29;20048;-84
2023/04/22 03:41:04;;;;;;;13.63;5.30;;;;;;;;;;4917911;29;20063;-86
2023/04/22 03:43:38;;;;;;;17.30;6.07;;;;;;;;;;4917465;29;20035;-85
2023/04/22 03:46:07;;;;;;;16.58;5.13;;;;;;;;;;4918328;29;20051;-85
2023/04/22 03:48:38;;;;;;;14.35;5.25;;;;;;;;;;4903678;29;20043;-85
2023/04/22 03:51:10;;;;;;;13.07;5.63;;;;;;;;;;4918540;29;20070;-85
2023/04/22 03:53:39;;;;;;;9.68;4.90;;;;;;;;;;4918506;29;20040;-84
2023/04/22 03:56:06;;;;;;;15.57;5.30;;;;;;;;;;4901649;29;20107;-86
2023/04/22 03:58:37;;;;;;;16.25;5.45;;;;;;;;;;4923200;29;20098;-87
2023/04/22 04:01:06;;;;;;;13.07;5.10;;;;;;;;;;4953719;29;20050;-85
2023/04/22 04:03:34;;;;;;;11.77;4.95;;;;;;;;;;4943076;29;20032;-83
2023/04/22 04:06:02;;;;;;;11.80;5.22;;;;;;;;;;4953716;29;20099;-85
2023/04/22 04:08:29;;;;;;;13.45;5.50;;;;;;;;;;4955779;29;20051;-87
2023/04/22 04:10:57;;;;;;;14.02;4.60;;;;;;;;;;4939302;29;20575;-86
2023/04/22 04:13:24;;;;;;;14.45;4.95;;;;;;;;;;4923218;28;20480;-87
2023/04/22 04:16:09;;;;;;;12.35;5.18;;;;;;;;;;4941104;29;20062;-85
2023/04/22 04:18:38;;;;;;;16.98;5.22;;;;;;;;;;4954425;29;20039;-86
2023/04/22 04:21:06;;;;;;;8.88;4.40;;;;;;;;;;4937321;29;20040;-85
2023/04/22 04:23:37;;;;;;;18.95;5.72;;;;;;;;;;4952467;28;20043;-85
2023/04/22 04:26:04;;;;;;;14.45;5.30;;;;;;;;;;4952765;29;20039;-86
2023/04/22 04:28:34;;;;;;;12.60;5.07;;;;;;;;;;4949981;29;20044;-85
2023/04/22 04:31:07;;;;;;;13.02;4.45;;;;;;;;;;4918653;29;20076;-86
2023/04/22 04:33:42;;;;;;;9.40;4.30;;;;;;;;;;4921710;29;20039;-84
2023/04/22 04:36:09;;;;;;;14.88;5.13;;;;;;;;;;4947588;29;20051;-85
2023/04/22 04:38:36;;;;;;;10.00;4.63;;;;;;;;;;4952934;29;20122;-86
2023/04/22 04:41:04;;;;;;;14.38;4.38;;;;;;;;;;4936183;29;20046;-84
2023/04/22 04:43:31;;;;;;;10.70;4.57;;;;;;;;;;4952975;29;20032;-86
2023/04/22 04:46:08;;;;;;;17.67;4.63;;;;;;;;;;4936916;29;20035;-86
2023/04/22 04:48:36;;;;;;;12.40;4.43;;;;;;;;;;4936042;29;20583;-87
2023/04/22 04:51:07;;;;;;;10.85;4.70;;;;;;;;;;4923784;29;20043;-88
2023/04/22 04:53:40;;;;;;;17.67;4.90;;;;;;;;;;4960950;28;20039;-89
2023/04/22 04:56:06;;;;;;;11.13;4.90;;;;;;;;;;4932010;29;20067;-87
2023/04/22 04:58:34;;;;;;;15.43;4.50;;;;;;;;;;4919612;29;20106;-88
2023/04/22 05:01:10;;;;;;;14.60;4.75;;;;;;;;;;4951330;29;20099;-86
2023/04/22 05:03:38;;;;;;;12.18;4.28;;;;;;;;;;4938118;29;20460;-84
2023/04/22 05:06:06;;;;;;;9.18;3.97;;;;;;;;;;4919409;29;20099;-84
2023/04/22 05:08:41;;;;;;;13.07;3.92;;;;;;;;;;4911646;29;20123;-86
2023/04/22 05:11:09;;;;;;;15.45;3.72;;;;;;;;;;4898210;29;20043;-84
2023/04/22 05:13:36;;;;;;;10.52;4.18;;;;;;;;;;4900148;29;20182;-85
2023/04/22 05:16:04;;;;;;;9.88;4.03;;;;;;;;;;4915978;29;20046;-83
2023/04/22 05:18:32;;;;;;;10.70;4.15;;;;;;;;;;4916924;29;20048;-87
2023/04/22 05:21:04;;;;;;;12.20;4.18;;;;;;;;;;4919255;29;20047;-85
2023/04/22 05:23:32;;;;;;;12.93;4.45;;;;;;;;;;4951393;28;20039;-85
2023/04/22 05:26:00;;;;;;;11.13;4.50;;;;;;;;;;4929988;29;20544;-86
2023/04/22 05:28:27;;;;;;;7.57;3.83;;;;;;;;;;4918960;29;20123;-86
2023/04/22 05:30:56;;;;;;;9.45;3.97;;;;;;;;;;4924221;29;20075;-87
2023/04/22 05:33:26;;;;;;;9.38;3.65;;;;;;;;;;4937270;28;20122;-87
2023/04/22 05:35:55;;;;;;;8.18;3.80;;;;;;;;;;4932946;29;20043;-85
2023/04/22 05:38:23;;;;;;;8.85;4.00;;;;;;;;;;4921987;29;20051;-87
2023/04/22 05:40:51;;;;;;;12.93;3.97;;;;;;;;;;4922293;29;20056;-86
2023/04/22 05:43:18;;;;;;;10.27;3.85;;;;;;;;;;4903460;29;20103;-86
2023/04/22 05:45:51;;;;;;;9.50;3.70;;;;;;;;;;4930341;29;20082;-86
2023/04/22 05:48:19;;;;;;;10.98;3.85;;;;;;;;;;4945315;29;20090;-85
2023/04/22 05:50:56;;;;;;;9.43;3.80;;;;;;;;;;4925884;29;20043;-85
2023/04/22 05:53:24;;;;;;;14.40;4.03;;;;;;;;;;4936686;28;20055;-85
2023/04/22 05:55:55;;;;;;;7.72;3.65;;;;;;;;;;4917939;29;20070;-86
2023/04/22 05:58:22;;;;;;;10.82;4.25;;;;;;;;;;4945823;29;20051;-86
2023/04/22 06:00:53;;;;;;;10.85;3.78;;;;;;;;;;4954371;29;20527;-85
2023/04/22 06:03:40;;;;;;;13.20;4.15;;;;;;;;;;4922748;29;20059;-87
2023/04/22 06:06:07;;;;;;;11.60;4.65;;;;;;;;;;4934729;29;20048;-86
2023/04/22 06:08:34;;;;;;;19.60;5.93;;;;;;;;;;4934820;29;20065;-89
2023/04/22 06:11:00;;;;;;;12.35;4.15;;;;;;;;;;4918439;29;20474;-87
2023/04/22 06:13:32;;;;;;;14.15;4.45;;;;;;;;;;4919554;29;20062;-87
2023/04/22 06:16:00;;;;;;;9.48;4.65;;;;;;;;;;4916203;29;20047;-86
2023/04/22 06:18:27;;;;;;;11.35;3.90;;;;;;;;;;4940164;29;20047;-86
2023/04/22 06:20:55;;;;;;;9.82;4.07;;;;;;;;;;4919667;29;20300;-88
2023/04/22 06:23:30;;;;;;;15.02;4.20;;;;;;;;;;4930800;28;20047;-86
2023/04/22 06:25:57;;;;;;;10.48;3.78;;;;;;;;;;4923884;29;20080;-87
2023/04/22 06:28:24;;;;;;;14.82;4.15;;;;;;;;;;4937325;29;20063;-85
2023/04/22 06:30:54;;;;;;;10.00;3.90;;;;;;;;;;4923885;29;20047;-86
2023/04/22 06:33:21;;;;;;;10.32;3.92;;;;;;;;;;4944575;28;20055;-83
2023/04/22 06:35:48;;;;;;;12.88;4.38;;;;;;;;;;4937456;29;20048;-84
2023/04/22 06:38:15;;;;;;;15.57;4.07;;;;;;;;;;4936808;29;20058;-84
2023/04/22 06:41:07;;;;;;;12.30;3.78;;;;;;;;;;4902489;29;20055;-86
2023/04/22 06:43:37;;;;;;;10.05;3.40;;;;;;;;;;4951824;28;20043;-86
2023/04/22 06:46:07;;;;;;;15.13;3.80;;;;;;;;;;4954934;29;20051;-86
2023/04/22 06:48:57;;;;;;;12.13;3.58;;;;;;;;;;4929096;29;20512;-86
2023/04/22 06:51:45;;;;;;;15.93;3.75;;;;;;;;;;4947321;29;20071;-83
2023/04/22 06:54:12;;;;;;;13.63;3.90;;;;;;;;;;4935130;29;20443;-83
2023/04/22 06:56:38;;;;;;;10.32;3.70;;;;;;;;;;4934572;29;20044;-86
2023/04/22 06:59:06;;;;;;;9.02;3.50;;;;;;;;;;4940814;29;20130;-82
2023/04/22 07:01:34;;;;;;;7.97;3.50;;;;;;;;;;4919924;29;20044;-82
2023/04/22 07:04:00;;;;;;;9.95;3.72;;;;;;;;;;4946091;28;20128;-82
2023/04/22 07:06:27;;;;;;;13.73;3.95;;;;;;;;;;4945201;29;20135;-83
2023/04/22 07:08:54;;;;;;;9.18;3.13;;;;;;;;;;4926802;29;20060;-80
2023/04/22 07:11:21;;;;;;;14.18;3.20;;;;;;;;;;4927025;29;20042;-83
2023/04/22 07:13:59;;;;;;;13.25;3.63;;;;;;;;;;4930081;29;20144;-81
2023/04/22 07:16:27;;;;;;;14.50;3.15;;;;;;;;;;4919108;29;20099;-83
2023/04/22 07:18:54;;;;;;;7.97;3.28;;;;;;;;;;4928214;29;20051;-84
2023/04/22 07:21:20;;;;;;;8.57;3.00;;;;;;;;;;4939500;29;20050;-84
2023/04/22 07:23:47;;;;;;;11.48;2.78;;;;;;;;;;4923677;29;20083;-82
2023/04/22 07:26:14;;;;;;;8.80;2.80;;;;;;;;;;4934170;29;20470;-82
2023/04/22 07:28:40;;;;;;;10.68;3.42;;;;;;;;;;4922197;29;20592;-83
2023/04/22 07:31:07;;;;;;;11.45;3.38;;;;;;;;;;4929762;29;20055;-83
2023/04/22 07:33:34;;;;;;;8.60;2.80;;;;;;;;;;4912770;29;20075;-82
2023/04/22 07:36:01;;;;;;;8.48;2.85;;;;;;;;;;4930766;29;20055;-82
2023/04/22 07:38:28;;;;;;;16.58;2.78;;;;;;;;;;4913115;29;20051;-84
2023/04/22 07:40:54;;;;;;;8.35;2.80;;;;;;;;;;4930803;29;20126;-84
2023/04/22 07:43:21;;;;;;;14.57;3.15;;;;;;;;;;4929845;29;20060;-82
2023/04/22 07:45:48;;;;;;;10.23;2.95;;;;;;;;;;4903379;29;20066;-81
2023/04/22 07:48:14;;;;;;;7.32;3.28;;;;;;;;;;4935279;29;20564;-82
2023/04/22 07:50:42;;;;;;;7.03;2.60;;;;;;;;;;4929306;29;20126;-81
2023/04/22 07:53:09;;;;;;;9.23;2.67;;;;;;;;;;4920075;28;20147;-82
2023/04/22 07:55:36;;;;;;;8.75;2.60;;;;;;;;;;4933956;29;20047;-83
2023/04/22 07:58:05;;;;;;;7.15;2.88;;;;;;;;;;4933775;29;20203;-82
2023/04/22 08:00:32;;;;;;;13.95;2.80;;;;;;;;;;4950293;29;20058;-83
2023/04/22 08:03:01;;;;;;;12.05;3.90;;;;;;;;;;4924462;29;20054;-82
2023/04/22 08:05:28;;;;;;;7.13;3.10;;;;;;;;;;4941517;28;20130;-82
2023/04/22 08:07:55;;;;;;;7.70;2.50;;;;;;;;;;4917959;29;20047;-83
2023/04/22 08:10:22;;;;;;;7.93;2.60;;;;;;;;;;4932794;29;20047;-81
2023/04/22 08:12:49;;;;;;;8.57;2.67;;;;;;;;;;4911926;29;20519;-78
2023/04/22 08:15:15;;;;;;;6.03;2.47;;;;;;;;;;4926472;29;20047;-73
2023/04/22 08:17:43;;;;;;;9.90;2.65;;;;;;;;;;4902201;29;20051;-74
2023/04/22 08:20:09;;;;;;;8.85;2.53;;;;;;;;;;4925169;29;20134;-77
2023/04/22 08:22:37;;;;;;;9.85;3.08;;;;;;;;;;4914035;29;20469;-77
2023/04/22 08:25:05;;;;;;;11.02;3.03;;;;;;;;;;4928436;29;20091;-82
2023/04/22 08:27:32;;;;;;;9.48;2.75;;;;;;;;;;4927952;29;20047;-85
2023/04/22 08:29:58;;;;;;;7.60;2.60;;;;;;;;;;4935574;29;20197;-79
2023/04/22 08:32:25;;;;;;;10.68;2.83;;;;;;;;;;4926622;29;20114;-82
2023/04/22 08:34:52;;;;;;;7.95;2.70;;;;;;;;;;4914752;29;21288;-81
2023/04/22 08:37:26;;;;;;;10.20;2.40;;;;;;;;;;4931795;29;20103;-82
2023/04/22 08:39:53;;;;;;;10.27;2.55;;;;;;;;;;4919562;29;20522;-82
2023/04/22 08:42:21;;;;;;;6.03;2.30;;;;;;;;;;4947780;29;20047;-83
2023/04/22 08:44:48;;;;;;;7.85;2.45;;;;;;;;;;4912742;29;20426;-80
2023/04/22 08:47:16;;;;;;;9.50;2.42;;;;;;;;;;4913011;29;20107;-80
2023/04/22 08:49:44;;;;;;;13.80;2.55;;;;;;;;;;4927208;29;20036;-80
2023/04/22 08:52:14;;;;;;;7.10;2.42;;;;;;;;;;4929753;29;20444;-81
2023/04/22 08:54:40;;;;;;;16.88;3.05;;;;;;;;;;4928517;29;20334;-85
2023/04/22 08:57:07;;;;;;;8.18;2.40;;;;;;;;;;4909707;29;20167;-74
2023/04/22 08:59:34;;;;;;;7.10;2.78;;;;;;;;;;4929676;29;20114;-82
2023/04/22 09:02:02;;;;;;;10.45;2.78;;;;;;;;;;4938964;29;20043;-81
2023/04/22 09:04:29;;;;;;;9.85;2.33;;;;;;;;;;4911240;29;20044;-81
2023/04/22 09:06:57;;;;;;;10.13;2.70;;;;;;;;;;4913857;29;20047;-80
2023/04/22 09:09:27;;;;;;;7.35;2.45;;;;;;;;;;4938239;29;20473;-79
2023/04/22 09:11:57;;;;;;;12.30;2.50;;;;;;;;;;4930219;29;20090;-81
2023/04/22 09:14:25;;;;;;;5.80;2.47;;;;;;;;;;4929211;29;20450;-81
2023/04/22 09:16:52;;;;;;;11.98;2.20;;;;;;;;;;4932842;29;20047;-81
2023/04/22 09:19:22;;;;;;;8.88;2.70;;;;;;;;;;4897700;29;20052;-80
2023/04/22 09:21:49;;;;;;;8.82;2.40;;;;;;;;;;4928801;29;20047;-81
2023/04/22 09:24:19;;;;;;;8.82;2.95;;;;;;;;;;4931877;29;20044;-82
2023/04/22 09:26:46;;;;;;;6.68;2.50;;;;;;;;;;4928298;29;20052;-81
2023/04/22 09:29:13;;;;;;;5.18;2.30;;;;;;;;;;4927236;29;20078;-80
2023/04/22 09:31:40;;;;;;;10.82;2.38;;;;;;;;;;4930636;29;20095;-82
2023/04/22 09:34:07;;;;;;;13.15;2.65;;;;;;;;;;4897947;29;20054;-81
2023/04/22 09:36:37;;;;;;;5.47;2.40;;;;;;;;;;4915510;29;20055;-81
2023/04/22 09:39:06;;;;;;;6.70;2.40;;;;;;;;;;4914904;29;20051;-81
2023/04/22 09:41:33;;;;;;;14.40;2.63;;;;;;;;;;4923834;29;20052;-81
2023/04/22 09:44:01;;;;;;;8.45;2.17;;;;;;;;;;4929314;29;20048;-81
2023/04/22 09:46:28;;;;;;;9.27;2.30;;;;;;;;;;4946395;29;20063;-82
2023/04/22 09:48:55;;;;;;;8.00;2.60;;;;;;;;;;4931073;29;20051;-81
2023/04/22 09:51:22;;;;;;;4.90;2.22;;;;;;;;;;4918858;29;20062;-81
2023/04/22 09:54:02;;;;;;;22.90;3.40;;;;;;;;;;4929364;29;20051;-82
2023/04/22 09:56:47;;;;;;;5.65;2.40;;;;;;;;;;4925994;29;20059;-83
2023/04/22 09:59:15;;;;;;;10.10;2.70;;;;;;;;;;4932050;29;20107;-82
2023/04/22 10:01:42;;;;;;;10.10;2.65;;;;;;;;;;4940161;29;20056;-82
2023/04/22 10:04:13;;;;;;;9.20;2.28;;;;;;;;;;4933749;29;20103;-81
2023/04/22 10:06:41;;;;;;;10.38;2.83;;;;;;;;;;4921666;29;20055;-83
2023/04/22 10:09:08;;;;;;;8.65;2.58;;;;;;;;;;4936119;29;20119;-83
2023/04/22 10:11:36;;;;;;;6.63;2.60;;;;;;;;;;4901570;29;20083;-80
2023/04/22 10:14:03;;;;;;;7.55;2.35;;;;;;;;;;4949140;28;20055;-83
2023/04/22 10:16:31;;;;;;;6.13;2.42;;;;;;;;;;4923441;29;20051;-81
2023/04/22 10:18:58;;;;;;;14.45;2.65;;;;;;;;;;4939379;28;20404;-81
2023/04/22 10:21:26;;;;;;;11.23;3.00;;;;;;;;;;4921656;29;20056;-79
2023/04/22 10:23:52;;;;;;;8.80;2.38;;;;;;;;;;4935642;29;20078;-80
2023/04/22 10:26:37;;;;;;;12.65;3.05;;;;;;;;;;4931378;29;20079;-83
2023/04/22 10:29:05;;;;;;;8.57;2.40;;;;;;;;;;4937383;29;20450;-81
2023/04/22 10:31:32;;;;;;;7.07;2.72;;;;;;;;;;4938499;29;20126;-79
2023/04/22 10:34:09;;;;;;;8.05;2.25;;;;;;;;;;4938870;28;20056;-79
2023/04/22 10:36:58;;;;;;;6.82;2.33;;;;;;;;;;4916644;29;20565;-81
2023/04/22 10:39:25;;;;;;;4.10;1.85;;;;;;;;;;4922701;29;20051;-79
2023/04/22 10:41:56;;;;;;;8.13;2.40;;;;;;;;;;4952420;29;20047;-80
2023/04/22 10:44:27;;;;;;;13.02;2.25;;;;;;;;;;4925224;29;20054;-87
2023/04/22 10:46:57;;;;;;;9.45;2.42;;;;;;;;;;4969002;29;20051;-84
2023/04/22 10:49:25;;;;;;;7.50;2.53;;;;;;;;;;4947860;29;20047;-77
2023/04/22 10:51:51;;;;;;;10.70;2.40;;;;;;;;;;4954900;29;20051;-77
2023/04/22 10:54:27;;;;;;;10.90;2.38;;;;;;;;;;4951772;28;20051;-77
2023/04/22 10:57:00;;;;;;;8.88;2.40;;;;;;;;;;4928490;29;20636;-77
2023/04/22 10:59:28;;;;;;;3.78;2.42;;;;;;;;;;4941386;29;20212;-80
2023/04/22 11:02:04;;;;;;;6.47;2.55;;;;;;;;;;4944055;29;20050;-82
2023/04/22 11:04:31;;;;;;;8.52;3.33;;;;;;;;;;4949034;28;20047;-83
2023/04/22 11:07:16;;;;;;;5.50;2.47;;;;;;;;;;4955577;29;20078;-86
2023/04/22 11:09:44;;;;;;;5.30;2.15;;;;;;;;;;4942852;29;20505;-82
2023/04/22 11:12:29;;;;;;;6.18;2.60;;;;;;;;;;4918124;29;20051;-77
2023/04/22 11:14:56;;;;;;;6.65;2.40;;;;;;;;;;4933916;29;20048;-81
2023/04/22 11:17:22;;;;;;;4.35;2.10;;;;;;;;;;4934730;29;20047;-81
2023/04/22 11:19:54;;;;;;;8.45;2.50;;;;;;;;;;4934672;29;20075;-82
2023/04/22 11:22:22;;;;;;;4.45;2.38;;;;;;;;;;4919791;29;20048;-79
2023/04/22 11:24:56;;;;;;;9.90;2.45;;;;;;;;;;4932604;29;20048;-79
2023/04/22 11:27:26;;;;;;;6.75;2.53;;;;;;;;;;4941124;29;20457;-79
2023/04/22 11:30:08;;;;;;;5.88;2.10;;;;;;;;;;4916884;29;20621;-81
2023/04/22 11:32:36;;;;;;;5.07;1.90;;;;;;;;;;4925571;29;20082;-80
2023/04/22 11:35:03;;;;;;;4.63;2.00;;;;;;;;;;4926302;29;20723;-82
2023/04/22 11:37:30;;;;;;;6.05;2.53;;;;;;;;;;4924514;29;20048;-79
2023/04/22 11:40:00;;;;;;;5.97;2.22;;;;;;;;;;4924703;29;20051;-79
2023/04/22 11:42:47;;;;;;;11.15;2.65;;;;;;;;;;4941325;29;20130;-81
2023/04/22 11:45:15;;;;;;;6.13;2.35;;;;;;;;;;4942605;29;20039;-82
2023/04/22 11:47:42;;;;;;;6.00;2.03;;;;;;;;;;4944037;29;20047;-82
2023/04/22 11:50:10;;;;;;;19.92;3.05;;;;;;;;;;4927041;29;20059;-80
2023/04/22 11:52:40;;;;;;;16.77;2.63;;;;;;;;;;4928347;29;20055;-80
2023/04/22 11:55:09;;;;;;;5.28;1.90;;;;;;;;;;4926627;29;20158;-80
2023/04/22 11:57:36;;;;;;;6.03;2.72;;;;;;;;;;4942583;29;20043;-82
2023/04/22 12:00:06;;;;;;;3.90;2.13;;;;;;;;;;4945345;29;20078;-78
2023/04/22 12:02:33;;;;;;;6.07;2.67;;;;;;;;;;4965453;29;20047;-80
2023/04/22 12:05:00;;;;;;;6.40;2.30;;;;;;;;;;4968190;28;20069;-79
2023/04/22 12:07:28;;;;;;;7.13;2.35;;;;;;;;;;4969628;29;20039;-80
2023/04/22 12:09:57;;;;;;;4.97;2.47;;;;;;;;;;4962158;29;20047;-79
2023/04/22 12:12:27;;;;;;;10.88;2.92;;;;;;;;;;4940413;29;20066;-78
2023/04/22 12:14:56;;;;;;;10.32;2.50;;;;;;;;;;4954861;29;20043;-80
2023/04/22 12:17:24;;;;;;;5.70;2.47;;;;;;;;;;4955428;29;20577;-82
2023/04/22 12:19:54;;;;;;;8.50;2.78;;;;;;;;;;4955231;29;20051;-80
2023/04/22 12:22:25;;;;;;;11.43;3.70;;;;;;;;;;4953487;29;20047;-78
2023/04/22 12:24:52;;;;;;;10.20;4.55;;;;;;;;;;4951162;29;20039;-79
2023/04/22 12:27:19;;;;;;;8.57;2.97;;;;;;;;;;4951619;29;20500;-80
2023/04/22 12:29:52;;;;;;;8.38;2.78;;;;;;;;;;4937362;29;20481;-81
2023/04/22 12:32:22;;;;;;;8.65;4.07;;;;;;;;;;4932810;29;20047;-84
2023/04/22 12:34:50;;;;;;;6.13;3.17;;;;;;;;;;4916389;29;21680;-85
2023/04/22 12:37:17;;;;;;;9.70;2.75;;;;;;;;;;4919640;29;20489;-87
2023/04/22 12:39:44;;;;;;;7.00;2.60;;;;;;;;;;4919505;29;20075;-82
2023/04/22 12:42:11;;;;;;;16.13;3.80;;;;;;;;;;4931154;29;20046;-81
2023/04/22 12:44:38;;;;;;;6.13;2.70;;;;;;;;;;4900587;29;20548;-85
2023/04/22 12:47:04;;;;;;;10.27;2.70;;;;;;;;;;4919537;29;20074;-86
2023/04/22 12:49:31;;;;;;;5.47;2.30;;;;;;;;;;4917510;29;20070;-88
2023/04/22 12:51:58;;;;;;;8.70;2.40;;;;;;;;;;4921642;29;20043;-84
2023/04/22 12:54:25;;;;;;;6.45;2.30;;;;;;;;;;4941756;29;20438;-86
2023/04/22 12:56:51;;;;;;;7.72;2.38;;;;;;;;;;4926867;29;20043;-85
2023/04/22 12:59:18;;;;;;;6.13;2.20;;;;;;;;;;4934692;29;20039;-84
2023/04/22 13:01:46;;;;;;;15.05;2.75;;;;;;;;;;4931735;29;20060;-83
2023/04/22 13:04:12;;;;;;;6.35;2.58;;;;;;;;;;4938880;29;20050;-84
2023/04/22 13:06:41;;;;;;;8.68;2.53;;;;;;;;;;4920245;29;20087;-87
2023/04/22 13:09:09;;;;;;;7.90;3.15;;;;;;;;;;4919682;29;20044;-85
2023/04/22 13:11:37;;;;;;;7.07;2.65;;;;;;;;;;4934275;29;20047;-82
2023/04/22 13:14:03;;;;;;;6.05;2.50;;;;;;;;;;4934298;29;20127;-86
2023/04/22 13:16:30;;;;;;;7.60;2.42;;;;;;;;;;4932772;29;20043;-83
2023/04/22 13:18:57;;;;;;;8.35;2.38;;;;;;;;;;4934703;29;20051;-85
2023/04/22 13:21:23;;;;;;;6.30;2.40;;;;;;;;;;4916586;29;20047;-89
2023/04/22 13:23:50;;;;;;;5.18;2.58;;;;;;;;;;4931611;29;20051;-86
2023/04/22 13:26:17;;;;;;;7.75;2.38;;;;;;;;;;4934125;29;20048;-72
2023/04/22 13:28:44;;;;;;;7.88;2.72;;;;;;;;;;4930612;29;20043;-73
2023/04/22 13:31:11;;;;;;;5.97;2.70;;;;;;;;;;4933996;29;20529;-88
2023/04/22 13:33:38;;;;;;;7.10;2.53;;;;;;;;;;4938696;29;20068;-87
2023/04/22 13:36:05;;;;;;;11.75;3.10;;;;;;;;;;4921218;29;20040;-88
2023/04/22 13:38:37;;;;;;;9.93;2.75;;;;;;;;;;4890020;29;20421;-88
2023/04/22 13:41:04;;;;;;;11.73;2.80;;;;;;;;;;4911253;29;20509;-88
2023/04/22 13:43:35;;;;;;;6.97;2.92;;;;;;;;;;4883013;29;20162;-88
2023/04/22 13:46:10;;;;;;;9.23;2.83;;;;;;;;;;4892923;29;20106;-89
2023/04/22 13:48:37;;;;;;;7.60;2.90;;;;;;;;;;4897281;29;20051;-88
2023/04/22 13:51:07;;;;;;;9.10;2.55;;;;;;;;;;4902666;29;20142;-88
2023/04/22 13:53:36;;;;;;;11.32;3.00;;;;;;;;;;4896517;29;20051;-89
2023/04/22 13:56:03;;;;;;;5.90;2.80;;;;;;;;;;4902827;29;20051;-88
2023/04/22 13:58:43;;;;;;;11.68;3.05;;;;;;;;;;4879753;29;20355;-87
2023/04/22 14:01:10;;;;;;;6.68;2.70;;;;;;;;;;4893988;29;20056;-87
2023/04/22 14:03:37;;;;;;;9.82;2.90;;;;;;;;;;4932375;29;20040;-87
2023/04/22 14:06:04;;;;;;;5.43;2.70;;;;;;;;;;4940764;29;20524;-88
2023/04/22 14:08:31;;;;;;;7.22;2.65;;;;;;;;;;4913211;29;20394;-88
2023/04/22 14:11:02;;;;;;;7.63;2.80;;;;;;;;;;4936141;29;20054;-87
2023/04/22 14:13:29;;;;;;;7.45;2.80;;;;;;;;;;4923814;29;20044;-87
2023/04/22 14:15:56;;;;;;;8.90;2.80;;;;;;;;;;4890767;29;20056;-87
2023/04/22 14:18:26;;;;;;;5.30;2.70;;;;;;;;;;4909130;29;20047;-87
2023/04/22 14:20:55;;;;;;;7.70;3.10;;;;;;;;;;4907894;29;20552;-87
2023/04/22 14:23:35;;;;;;;6.45;3.03;;;;;;;;;;4917866;29;20042;-88
2023/04/22 14:26:03;;;;;;;8.05;2.85;;;;;;;;;;4933866;29;20095;-90
2023/04/22 14:28:30;;;;;;;10.73;3.17;;;;;;;;;;4933452;29;20043;-88
2023/04/22 14:30:57;;;;;;;7.75;3.10;;;;;;;;;;4932857;29;20043;-89
2023/04/22 14:33:24;;;;;;;9.85;3.05;;;;;;;;;;4901866;29;20036;-89
2023/04/22 14:35:54;;;;;;;12.10;2.83;;;;;;;;;;4906759;29;20099;-88
2023/04/22 14:38:21;;;;;;;7.22;2.88;;;;;;;;;;4900648;29;20111;-88
2023/04/22 14:40:49;;;;;;;8.80;3.05;;;;;;;;;;4932575;29;20077;-88
2023/04/22 14:43:19;;;;;;;10.95;3.42;;;;;;;;;;4907382;29;20056;-87
2023/04/22 14:46:00;;;;;;;6.10;2.88;;;;;;;;;;4917430;29;20108;-87